sensor_id;sensor_type;location;lat;lon;timestamp;P1;durP1;ratioP1;P2;durP2;ratioP2
16832;SDS011;8533;48.426;10.868;2023-12-20T00:01:14;3.03;;;2.43;;
16832;SDS011;8533;48.426;10.868;2023-12-20T00:03:40;3.67;;;2.10;;
16832;SDS011;8533;48.426;10.868;2023-12-20T00:06:05;2.57;;;2.00;;
16832;SDS011;8533;48.426;10.868;2023-12-20T00:08:30;2.73;;;2.20;;
16832;SDS011;8533;48.426;10.868;2023-12-20T00:10:56;3.87;;;2.30;;
16832;SDS011;8533;48.426;10.868;2023-12-20T00:13:21;3.37;;;2.23;;
16832;SDS011;8533;48.426;10.868;2023-12-20T00:15:46;2.63;;;2.10;;
16832;SDS011;8533;48.426;10.868;2023-12-20T00:18:11;5.23;;;2.67;;
16832;SDS011;8533;48.426;10.868;2023-12-20T00:20:37;5.30;;;2.27;;
16832;SDS011;8533;48.426;10.868;2023-12-20T00:23:02;4.10;;;2.20;;
16832;SDS011;8533;48.426;10.868;2023-12-20T00:25:28;3.27;;;2.50;;
16832;SDS011;8533;48.426;10.868;2023-12-20T00:27:53;4.60;;;2.40;;
16832;SDS011;8533;48.426;10.868;2023-12-20T00:30:18;3.60;;;2.30;;
16832;SDS011;8533;48.426;10.868;2023-12-20T00:32:44;4.00;;;2.37;;
16832;SDS011;8533;48.426;10.868;2023-12-20T00:35:14;2.37;;;2.00;;
16832;SDS011;8533;48.426;10.868;2023-12-20T00:37:40;3.27;;;2.00;;
16832;SDS011;8533;48.426;10.868;2023-12-20T00:40:06;2.33;;;2.13;;
16832;SDS011;8533;48.426;10.868;2023-12-20T00:42:31;3.13;;;2.20;;
16832;SDS011;8533;48.426;10.868;2023-12-20T00:44:58;3.53;;;2.20;;
16832;SDS011;8533;48.426;10.868;2023-12-20T00:47:24;2.90;;;2.20;;
16832;SDS011;8533;48.426;10.868;2023-12-20T00:49:49;2.20;;;1.87;;
16832;SDS011;8533;48.426;10.868;2023-12-20T00:52:14;2.93;;;2.10;;
16832;SDS011;8533;48.426;10.868;2023-12-20T00:54:41;3.80;;;1.87;;
16832;SDS011;8533;48.426;10.868;2023-12-20T00:57:07;2.80;;;2.10;;
16832;SDS011;8533;48.426;10.868;2023-12-20T00:59:32;4.30;;;2.23;;
16832;SDS011;8533;48.426;10.868;2023-12-20T01:01:58;2.13;;;1.77;;
16832;SDS011;8533;48.426;10.868;2023-12-20T01:04:23;2.33;;;1.90;;
16832;SDS011;8533;48.426;10.868;2023-12-20T01:06:48;2.87;;;1.90;;
16832;SDS011;8533;48.426;10.868;2023-12-20T01:09:13;3.07;;;2.07;;
16832;SDS011;8533;48.426;10.868;2023-12-20T01:11:39;2.30;;;1.70;;
16832;SDS011;8533;48.426;10.868;2023-12-20T01:14:04;1.73;;;1.63;;
16832;SDS011;8533;48.426;10.868;2023-12-20T01:16:30;1.57;;;1.37;;
16832;SDS011;8533;48.426;10.868;2023-12-20T01:18:55;3.97;;;2.00;;
16832;SDS011;8533;48.426;10.868;2023-12-20T01:21:20;1.93;;;1.57;;
16832;SDS011;8533;48.426;10.868;2023-12-20T01:23:46;2.37;;;1.60;;
16832;SDS011;8533;48.426;10.868;2023-12-20T01:26:11;3.30;;;1.70;;
16832;SDS011;8533;48.426;10.868;2023-12-20T01:28:37;1.83;;;1.60;;
16832;SDS011;8533;48.426;10.868;2023-12-20T01:31:03;1.60;;;1.50;;
16832;SDS011;8533;48.426;10.868;2023-12-20T01:33:28;2.30;;;1.60;;
16832;SDS011;8533;48.426;10.868;2023-12-20T01:35:54;2.07;;;1.77;;
16832;SDS011;8533;48.426;10.868;2023-12-20T01:38:19;2.00;;;1.80;;
16832;SDS011;8533;48.426;10.868;2023-12-20T01:40:45;1.77;;;1.57;;
16832;SDS011;8533;48.426;10.868;2023-12-20T01:43:10;1.50;;;1.40;;
16832;SDS011;8533;48.426;10.868;2023-12-20T01:45:39;1.77;;;1.47;;
16832;SDS011;8533;48.426;10.868;2023-12-20T01:48:05;2.23;;;2.03;;
16832;SDS011;8533;48.426;10.868;2023-12-20T01:50:31;3.23;;;1.53;;
16832;SDS011;8533;48.426;10.868;2023-12-20T01:53:00;2.83;;;1.70;;
16832;SDS011;8533;48.426;10.868;2023-12-20T01:55:27;1.83;;;1.63;;
16832;SDS011;8533;48.426;10.868;2023-12-20T01:57:56;2.60;;;1.60;;
16832;SDS011;8533;48.426;10.868;2023-12-20T02:00:22;1.73;;;1.60;;
16832;SDS011;8533;48.426;10.868;2023-12-20T02:02:49;2.40;;;1.60;;
16832;SDS011;8533;48.426;10.868;2023-12-20T02:05:15;1.80;;;1.40;;
16832;SDS011;8533;48.426;10.868;2023-12-20T02:07:41;1.50;;;1.40;;
16832;SDS011;8533;48.426;10.868;2023-12-20T02:10:07;2.67;;;1.60;;
16832;SDS011;8533;48.426;10.868;2023-12-20T02:12:32;1.43;;;1.33;;
16832;SDS011;8533;48.426;10.868;2023-12-20T02:14:58;1.53;;;1.43;;
16832;SDS011;8533;48.426;10.868;2023-12-20T02:17:23;2.67;;;1.60;;
16832;SDS011;8533;48.426;10.868;2023-12-20T02:19:49;2.10;;;1.50;;
16832;SDS011;8533;48.426;10.868;2023-12-20T02:22:15;3.97;;;1.90;;
16832;SDS011;8533;48.426;10.868;2023-12-20T02:24:40;1.73;;;1.50;;
16832;SDS011;8533;48.426;10.868;2023-12-20T02:27:06;1.33;;;1.23;;
16832;SDS011;8533;48.426;10.868;2023-12-20T02:29:32;1.87;;;1.60;;
16832;SDS011;8533;48.426;10.868;2023-12-20T02:31:58;2.83;;;1.50;;
16832;SDS011;8533;48.426;10.868;2023-12-20T02:34:23;1.97;;;1.50;;
16832;SDS011;8533;48.426;10.868;2023-12-20T02:36:49;1.73;;;1.50;;
16832;SDS011;8533;48.426;10.868;2023-12-20T02:39:14;3.90;;;1.90;;
16832;SDS011;8533;48.426;10.868;2023-12-20T02:41:39;2.27;;;1.83;;
16832;SDS011;8533;48.426;10.868;2023-12-20T02:44:04;2.33;;;1.60;;
16832;SDS011;8533;48.426;10.868;2023-12-20T02:46:30;1.57;;;1.30;;
16832;SDS011;8533;48.426;10.868;2023-12-20T02:48:55;2.77;;;1.80;;
16832;SDS011;8533;48.426;10.868;2023-12-20T02:51:20;2.20;;;1.87;;
16832;SDS011;8533;48.426;10.868;2023-12-20T02:53:46;2.47;;;1.60;;
16832;SDS011;8533;48.426;10.868;2023-12-20T02:56:11;2.47;;;1.90;;
16832;SDS011;8533;48.426;10.868;2023-12-20T02:58:36;3.97;;;1.63;;
16832;SDS011;8533;48.426;10.868;2023-12-20T03:01:02;5.20;;;2.00;;
16832;SDS011;8533;48.426;10.868;2023-12-20T03:03:27;2.17;;;1.80;;
16832;SDS011;8533;48.426;10.868;2023-12-20T03:05:52;2.87;;;1.80;;
16832;SDS011;8533;48.426;10.868;2023-12-20T03:08:18;2.80;;;1.77;;
16832;SDS011;8533;48.426;10.868;2023-12-20T03:10:43;3.33;;;2.23;;
16832;SDS011;8533;48.426;10.868;2023-12-20T03:13:08;3.30;;;2.43;;
16832;SDS011;8533;48.426;10.868;2023-12-20T03:15:34;4.10;;;2.00;;
16832;SDS011;8533;48.426;10.868;2023-12-20T03:17:59;3.90;;;2.00;;
16832;SDS011;8533;48.426;10.868;2023-12-20T03:20:24;6.17;;;2.10;;
16832;SDS011;8533;48.426;10.868;2023-12-20T03:22:51;2.67;;;2.00;;
16832;SDS011;8533;48.426;10.868;2023-12-20T03:25:17;4.00;;;1.90;;
16832;SDS011;8533;48.426;10.868;2023-12-20T03:27:42;4.10;;;2.20;;
16832;SDS011;8533;48.426;10.868;2023-12-20T03:30:08;2.80;;;2.37;;
16832;SDS011;8533;48.426;10.868;2023-12-20T03:32:34;4.10;;;2.37;;
16832;SDS011;8533;48.426;10.868;2023-12-20T03:34:59;2.30;;;1.90;;
16832;SDS011;8533;48.426;10.868;2023-12-20T03:37:24;3.33;;;2.23;;
16832;SDS011;8533;48.426;10.868;2023-12-20T03:39:49;3.07;;;2.30;;
16832;SDS011;8533;48.426;10.868;2023-12-20T03:42:15;2.43;;;2.10;;
16832;SDS011;8533;48.426;10.868;2023-12-20T03:44:40;3.10;;;2.10;;
16832;SDS011;8533;48.426;10.868;2023-12-20T03:47:06;4.37;;;2.50;;
16832;SDS011;8533;48.426;10.868;2023-12-20T03:49:32;3.23;;;2.47;;
16832;SDS011;8533;48.426;10.868;2023-12-20T03:51:57;2.43;;;1.97;;
16832;SDS011;8533;48.426;10.868;2023-12-20T03:54:22;3.97;;;2.43;;
16832;SDS011;8533;48.426;10.868;2023-12-20T03:56:47;3.93;;;2.03;;
16832;SDS011;8533;48.426;10.868;2023-12-20T03:59:13;3.60;;;2.50;;
16832;SDS011;8533;48.426;10.868;2023-12-20T04:01:39;4.57;;;2.57;;
16832;SDS011;8533;48.426;10.868;2023-12-20T04:04:08;4.43;;;2.30;;
16832;SDS011;8533;48.426;10.868;2023-12-20T04:06:33;3.23;;;2.17;;
16832;SDS011;8533;48.426;10.868;2023-12-20T04:08:59;3.50;;;2.50;;
16832;SDS011;8533;48.426;10.868;2023-12-20T04:11:24;3.30;;;2.60;;
16832;SDS011;8533;48.426;10.868;2023-12-20T04:13:50;5.03;;;2.60;;
16832;SDS011;8533;48.426;10.868;2023-12-20T04:16:15;3.90;;;2.57;;
16832;SDS011;8533;48.426;10.868;2023-12-20T04:18:40;3.70;;;2.40;;
16832;SDS011;8533;48.426;10.868;2023-12-20T04:21:06;3.47;;;2.87;;
16832;SDS011;8533;48.426;10.868;2023-12-20T04:23:32;3.77;;;2.60;;
16832;SDS011;8533;48.426;10.868;2023-12-20T04:25:57;6.50;;;2.67;;
16832;SDS011;8533;48.426;10.868;2023-12-20T04:28:22;3.37;;;2.53;;
16832;SDS011;8533;48.426;10.868;2023-12-20T04:30:48;3.87;;;2.60;;
16832;SDS011;8533;48.426;10.868;2023-12-20T04:33:13;3.37;;;2.23;;
16832;SDS011;8533;48.426;10.868;2023-12-20T04:35:38;2.90;;;2.40;;
16832;SDS011;8533;48.426;10.868;2023-12-20T04:38:05;5.30;;;2.57;;
16832;SDS011;8533;48.426;10.868;2023-12-20T04:40:31;3.90;;;2.80;;
16832;SDS011;8533;48.426;10.868;2023-12-20T04:42:56;4.97;;;2.67;;
16832;SDS011;8533;48.426;10.868;2023-12-20T04:45:21;7.80;;;2.77;;
16832;SDS011;8533;48.426;10.868;2023-12-20T04:47:48;4.47;;;3.00;;
16832;SDS011;8533;48.426;10.868;2023-12-20T04:50:13;3.57;;;2.37;;
16832;SDS011;8533;48.426;10.868;2023-12-20T04:52:39;3.30;;;2.30;;
16832;SDS011;8533;48.426;10.868;2023-12-20T04:55:05;4.50;;;2.77;;
16832;SDS011;8533;48.426;10.868;2023-12-20T04:57:30;4.47;;;2.70;;
16832;SDS011;8533;48.426;10.868;2023-12-20T04:59:55;5.80;;;2.73;;
16832;SDS011;8533;48.426;10.868;2023-12-20T05:02:21;4.77;;;2.60;;
16832;SDS011;8533;48.426;10.868;2023-12-20T05:04:46;2.87;;;2.50;;
16832;SDS011;8533;48.426;10.868;2023-12-20T05:07:11;4.50;;;2.60;;
16832;SDS011;8533;48.426;10.868;2023-12-20T05:09:37;4.53;;;2.37;;
16832;SDS011;8533;48.426;10.868;2023-12-20T05:12:02;3.50;;;2.40;;
16832;SDS011;8533;48.426;10.868;2023-12-20T05:14:27;3.23;;;2.33;;
16832;SDS011;8533;48.426;10.868;2023-12-20T05:16:53;3.17;;;2.30;;
16832;SDS011;8533;48.426;10.868;2023-12-20T05:19:18;5.73;;;3.90;;
16832;SDS011;8533;48.426;10.868;2023-12-20T05:21:43;4.50;;;2.67;;
16832;SDS011;8533;48.426;10.868;2023-12-20T05:24:09;11.60;;;2.47;;
16832;SDS011;8533;48.426;10.868;2023-12-20T05:26:34;2.73;;;2.13;;
16832;SDS011;8533;48.426;10.868;2023-12-20T05:28:59;2.87;;;2.13;;
16832;SDS011;8533;48.426;10.868;2023-12-20T05:31:25;3.27;;;2.20;;
16832;SDS011;8533;48.426;10.868;2023-12-20T05:33:50;2.77;;;2.10;;
16832;SDS011;8533;48.426;10.868;2023-12-20T05:36:15;4.47;;;2.27;;
16832;SDS011;8533;48.426;10.868;2023-12-20T05:38:40;2.33;;;1.93;;
16832;SDS011;8533;48.426;10.868;2023-12-20T05:41:06;4.10;;;2.20;;
16832;SDS011;8533;48.426;10.868;2023-12-20T05:43:31;4.70;;;2.30;;
16832;SDS011;8533;48.426;10.868;2023-12-20T05:45:56;4.07;;;2.17;;
16832;SDS011;8533;48.426;10.868;2023-12-20T05:48:23;5.37;;;2.00;;
16832;SDS011;8533;48.426;10.868;2023-12-20T05:50:48;2.27;;;1.80;;
16832;SDS011;8533;48.426;10.868;2023-12-20T05:53:14;3.07;;;2.20;;
16832;SDS011;8533;48.426;10.868;2023-12-20T05:55:39;4.07;;;2.30;;
16832;SDS011;8533;48.426;10.868;2023-12-20T05:58:05;3.80;;;2.27;;
16832;SDS011;8533;48.426;10.868;2023-12-20T06:00:30;4.27;;;2.33;;
16832;SDS011;8533;48.426;10.868;2023-12-20T06:02:55;2.93;;;2.10;;
16832;SDS011;8533;48.426;10.868;2023-12-20T06:05:21;2.20;;;1.80;;
16832;SDS011;8533;48.426;10.868;2023-12-20T06:07:46;2.63;;;2.10;;
16832;SDS011;8533;48.426;10.868;2023-12-20T06:10:13;3.53;;;2.10;;
16832;SDS011;8533;48.426;10.868;2023-12-20T06:12:38;2.50;;;2.00;;
16832;SDS011;8533;48.426;10.868;2023-12-20T06:15:04;3.13;;;2.23;;
16832;SDS011;8533;48.426;10.868;2023-12-20T06:17:31;4.63;;;2.27;;
16832;SDS011;8533;48.426;10.868;2023-12-20T06:19:56;3.87;;;2.57;;
16832;SDS011;8533;48.426;10.868;2023-12-20T06:22:22;3.27;;;2.33;;
16832;SDS011;8533;48.426;10.868;2023-12-20T06:24:47;5.47;;;2.90;;
16832;SDS011;8533;48.426;10.868;2023-12-20T06:27:13;5.17;;;2.83;;
16832;SDS011;8533;48.426;10.868;2023-12-20T06:29:38;4.27;;;2.70;;
16832;SDS011;8533;48.426;10.868;2023-12-20T06:32:04;5.03;;;3.50;;
16832;SDS011;8533;48.426;10.868;2023-12-20T06:34:29;5.13;;;3.00;;
16832;SDS011;8533;48.426;10.868;2023-12-20T06:36:54;7.53;;;3.33;;
16832;SDS011;8533;48.426;10.868;2023-12-20T06:39:20;5.20;;;3.30;;
16832;SDS011;8533;48.426;10.868;2023-12-20T06:41:45;5.53;;;3.57;;
16832;SDS011;8533;48.426;10.868;2023-12-20T06:44:10;6.90;;;3.57;;
16832;SDS011;8533;48.426;10.868;2023-12-20T06:46:36;7.23;;;4.00;;
16832;SDS011;8533;48.426;10.868;2023-12-20T06:49:01;8.27;;;4.27;;
16832;SDS011;8533;48.426;10.868;2023-12-20T06:51:26;7.90;;;3.80;;
16832;SDS011;8533;48.426;10.868;2023-12-20T06:53:52;9.27;;;4.57;;
16832;SDS011;8533;48.426;10.868;2023-12-20T06:56:17;8.43;;;4.30;;
16832;SDS011;8533;48.426;10.868;2023-12-20T06:58:43;7.77;;;4.97;;
16832;SDS011;8533;48.426;10.868;2023-12-20T07:01:11;9.67;;;4.67;;
16832;SDS011;8533;48.426;10.868;2023-12-20T07:03:37;8.23;;;4.60;;
16832;SDS011;8533;48.426;10.868;2023-12-20T07:06:03;9.43;;;5.50;;
16832;SDS011;8533;48.426;10.868;2023-12-20T07:08:28;11.40;;;5.50;;
16832;SDS011;8533;48.426;10.868;2023-12-20T07:10:54;11.40;;;5.30;;
16832;SDS011;8533;48.426;10.868;2023-12-20T07:13:19;8.53;;;5.63;;
16832;SDS011;8533;48.426;10.868;2023-12-20T07:15:44;11.33;;;5.83;;
16832;SDS011;8533;48.426;10.868;2023-12-20T07:18:10;11.37;;;6.30;;
16832;SDS011;8533;48.426;10.868;2023-12-20T07:20:35;11.30;;;6.63;;
16832;SDS011;8533;48.426;10.868;2023-12-20T07:23:00;12.27;;;6.43;;
16832;SDS011;8533;48.426;10.868;2023-12-20T07:25:26;10.70;;;5.83;;
16832;SDS011;8533;48.426;10.868;2023-12-20T07:27:51;13.37;;;6.70;;
16832;SDS011;8533;48.426;10.868;2023-12-20T07:30:16;12.37;;;6.63;;
16832;SDS011;8533;48.426;10.868;2023-12-20T07:32:42;11.90;;;6.23;;
16832;SDS011;8533;48.426;10.868;2023-12-20T07:35:07;16.03;;;6.70;;
16832;SDS011;8533;48.426;10.868;2023-12-20T07:37:32;11.23;;;6.47;;
16832;SDS011;8533;48.426;10.868;2023-12-20T07:39:58;13.67;;;7.30;;
16832;SDS011;8533;48.426;10.868;2023-12-20T07:42:23;11.93;;;6.13;;
16832;SDS011;8533;48.426;10.868;2023-12-20T07:44:48;16.53;;;6.93;;
16832;SDS011;8533;48.426;10.868;2023-12-20T07:47:14;15.13;;;7.00;;
16832;SDS011;8533;48.426;10.868;2023-12-20T07:49:42;10.10;;;6.30;;
16832;SDS011;8533;48.426;10.868;2023-12-20T07:52:07;13.20;;;7.00;;
16832;SDS011;8533;48.426;10.868;2023-12-20T07:54:33;13.33;;;6.83;;
16832;SDS011;8533;48.426;10.868;2023-12-20T07:56:58;14.97;;;7.13;;
16832;SDS011;8533;48.426;10.868;2023-12-20T07:59:24;12.93;;;6.17;;
16832;SDS011;8533;48.426;10.868;2023-12-20T08:01:49;10.27;;;6.53;;
16832;SDS011;8533;48.426;10.868;2023-12-20T08:04:14;10.77;;;5.87;;
16832;SDS011;8533;48.426;10.868;2023-12-20T08:06:39;16.97;;;6.40;;
16832;SDS011;8533;48.426;10.868;2023-12-20T08:09:05;11.60;;;6.13;;
16832;SDS011;8533;48.426;10.868;2023-12-20T08:11:30;12.03;;;6.60;;
16832;SDS011;8533;48.426;10.868;2023-12-20T08:13:55;10.97;;;5.93;;
16832;SDS011;8533;48.426;10.868;2023-12-20T08:16:20;12.57;;;6.47;;
16832;SDS011;8533;48.426;10.868;2023-12-20T08:18:46;13.67;;;7.23;;
16832;SDS011;8533;48.426;10.868;2023-12-20T08:21:12;12.37;;;6.30;;
16832;SDS011;8533;48.426;10.868;2023-12-20T08:23:37;15.73;;;6.87;;
16832;SDS011;8533;48.426;10.868;2023-12-20T08:26:04;12.60;;;5.57;;
16832;SDS011;8533;48.426;10.868;2023-12-20T08:28:32;11.57;;;5.97;;
16832;SDS011;8533;48.426;10.868;2023-12-20T08:30:58;12.60;;;5.53;;
16832;SDS011;8533;48.426;10.868;2023-12-20T08:33:24;10.17;;;5.57;;
16832;SDS011;8533;48.426;10.868;2023-12-20T08:35:49;12.07;;;6.33;;
16832;SDS011;8533;48.426;10.868;2023-12-20T08:38:14;9.93;;;5.53;;
16832;SDS011;8533;48.426;10.868;2023-12-20T08:40:39;11.70;;;5.90;;
16832;SDS011;8533;48.426;10.868;2023-12-20T08:43:05;11.23;;;5.30;;
16832;SDS011;8533;48.426;10.868;2023-12-20T08:45:30;12.60;;;7.10;;
16832;SDS011;8533;48.426;10.868;2023-12-20T08:47:55;9.00;;;5.13;;
16832;SDS011;8533;48.426;10.868;2023-12-20T08:50:21;10.67;;;5.00;;
16832;SDS011;8533;48.426;10.868;2023-12-20T08:52:46;10.40;;;5.27;;
16832;SDS011;8533;48.426;10.868;2023-12-20T08:55:12;8.60;;;4.90;;
16832;SDS011;8533;48.426;10.868;2023-12-20T08:57:37;8.53;;;5.30;;
16832;SDS011;8533;48.426;10.868;2023-12-20T09:00:03;9.67;;;5.13;;
16832;SDS011;8533;48.426;10.868;2023-12-20T09:02:29;7.47;;;4.77;;
16832;SDS011;8533;48.426;10.868;2023-12-20T09:04:54;11.07;;;6.00;;
16832;SDS011;8533;48.426;10.868;2023-12-20T09:07:26;7.20;;;4.87;;
16832;SDS011;8533;48.426;10.868;2023-12-20T09:09:53;8.87;;;4.97;;
16832;SDS011;8533;48.426;10.868;2023-12-20T09:12:19;7.30;;;4.77;;
16832;SDS011;8533;48.426;10.868;2023-12-20T09:14:48;7.30;;;4.57;;
16832;SDS011;8533;48.426;10.868;2023-12-20T09:17:14;11.33;;;6.43;;
16832;SDS011;8533;48.426;10.868;2023-12-20T09:19:41;9.57;;;5.57;;
16832;SDS011;8533;48.426;10.868;2023-12-20T09:22:07;7.87;;;4.37;;
16832;SDS011;8533;48.426;10.868;2023-12-20T09:24:32;6.00;;;3.80;;
16832;SDS011;8533;48.426;10.868;2023-12-20T09:26:58;5.60;;;3.90;;
16832;SDS011;8533;48.426;10.868;2023-12-20T09:29:23;5.07;;;3.27;;
16832;SDS011;8533;48.426;10.868;2023-12-20T09:31:49;5.73;;;3.30;;
16832;SDS011;8533;48.426;10.868;2023-12-20T09:34:15;5.57;;;3.67;;
16832;SDS011;8533;48.426;10.868;2023-12-20T09:36:40;5.67;;;4.07;;
16832;SDS011;8533;48.426;10.868;2023-12-20T09:39:11;6.03;;;3.70;;
16832;SDS011;8533;48.426;10.868;2023-12-20T09:41:43;7.37;;;4.43;;
16832;SDS011;8533;48.426;10.868;2023-12-20T09:44:13;7.87;;;4.70;;
16832;SDS011;8533;48.426;10.868;2023-12-20T09:46:42;5.50;;;3.33;;
16832;SDS011;8533;48.426;10.868;2023-12-20T09:49:08;4.80;;;3.33;;
16832;SDS011;8533;48.426;10.868;2023-12-20T09:51:33;5.70;;;3.70;;
16832;SDS011;8533;48.426;10.868;2023-12-20T09:53:59;4.93;;;3.13;;
16832;SDS011;8533;48.426;10.868;2023-12-20T09:56:28;4.33;;;3.27;;
16832;SDS011;8533;48.426;10.868;2023-12-20T09:58:54;7.23;;;3.30;;
16832;SDS011;8533;48.426;10.868;2023-12-20T10:01:19;5.37;;;3.20;;
16832;SDS011;8533;48.426;10.868;2023-12-20T10:03:45;6.17;;;3.43;;
16832;SDS011;8533;48.426;10.868;2023-12-20T10:06:11;4.73;;;3.20;;
16832;SDS011;8533;48.426;10.868;2023-12-20T10:08:36;3.87;;;2.80;;
16832;SDS011;8533;48.426;10.868;2023-12-20T10:11:02;5.27;;;3.20;;
16832;SDS011;8533;48.426;10.868;2023-12-20T10:13:29;5.13;;;3.00;;
16832;SDS011;8533;48.426;10.868;2023-12-20T10:15:54;8.23;;;3.30;;
16832;SDS011;8533;48.426;10.868;2023-12-20T10:18:20;7.10;;;3.90;;
16832;SDS011;8533;48.426;10.868;2023-12-20T10:20:46;4.77;;;3.23;;
16832;SDS011;8533;48.426;10.868;2023-12-20T10:23:11;4.90;;;2.87;;
16832;SDS011;8533;48.426;10.868;2023-12-20T10:25:38;4.97;;;3.10;;
16832;SDS011;8533;48.426;10.868;2023-12-20T10:28:14;3.20;;;2.50;;
16832;SDS011;8533;48.426;10.868;2023-12-20T10:30:46;3.93;;;2.83;;
16832;SDS011;8533;48.426;10.868;2023-12-20T10:33:11;4.73;;;2.67;;
16832;SDS011;8533;48.426;10.868;2023-12-20T10:35:40;4.00;;;2.57;;
16832;SDS011;8533;48.426;10.868;2023-12-20T10:38:06;3.87;;;2.60;;
16832;SDS011;8533;48.426;10.868;2023-12-20T10:40:35;3.23;;;2.40;;
16832;SDS011;8533;48.426;10.868;2023-12-20T10:43:02;4.07;;;2.10;;
16832;SDS011;8533;48.426;10.868;2023-12-20T10:45:28;3.53;;;2.60;;
16832;SDS011;8533;48.426;10.868;2023-12-20T10:47:53;2.90;;;2.40;;
16832;SDS011;8533;48.426;10.868;2023-12-20T10:50:19;4.73;;;2.20;;
16832;SDS011;8533;48.426;10.868;2023-12-20T10:52:45;2.63;;;2.10;;
16832;SDS011;8533;48.426;10.868;2023-12-20T10:55:12;2.47;;;2.00;;
16832;SDS011;8533;48.426;10.868;2023-12-20T10:57:37;4.50;;;2.43;;
16832;SDS011;8533;48.426;10.868;2023-12-20T11:00:03;5.33;;;3.93;;
16832;SDS011;8533;48.426;10.868;2023-12-20T11:02:35;3.77;;;2.40;;
16832;SDS011;8533;48.426;10.868;2023-12-20T11:07:58;3.17;;;2.60;;
16832;SDS011;8533;48.426;10.868;2023-12-20T11:10:33;8.80;;;5.20;;
16832;SDS011;8533;48.426;10.868;2023-12-20T11:13:10;3.67;;;3.00;;
16832;SDS011;8533;48.426;10.868;2023-12-20T11:15:41;2.40;;;2.20;;
16832;SDS011;8533;48.426;10.868;2023-12-20T11:18:08;4.10;;;2.53;;
16832;SDS011;8533;48.426;10.868;2023-12-20T11:20:37;3.33;;;2.53;;
16832;SDS011;8533;48.426;10.868;2023-12-20T11:23:05;2.63;;;2.40;;
16832;SDS011;8533;48.426;10.868;2023-12-20T11:28:14;3.50;;;2.40;;
16832;SDS011;8533;48.426;10.868;2023-12-20T11:33:11;2.80;;;2.10;;
16832;SDS011;8533;48.426;10.868;2023-12-20T11:35:38;3.03;;;2.33;;
16832;SDS011;8533;48.426;10.868;2023-12-20T11:38:06;2.13;;;1.93;;
16832;SDS011;8533;48.426;10.868;2023-12-20T11:40:33;1.93;;;1.80;;
16832;SDS011;8533;48.426;10.868;2023-12-20T11:42:58;2.10;;;1.90;;
16832;SDS011;8533;48.426;10.868;2023-12-20T11:45:24;2.03;;;1.90;;
16832;SDS011;8533;48.426;10.868;2023-12-20T11:47:50;4.97;;;2.20;;
16832;SDS011;8533;48.426;10.868;2023-12-20T11:50:16;2.30;;;1.90;;
16832;SDS011;8533;48.426;10.868;2023-12-20T11:52:42;3.53;;;2.20;;
16832;SDS011;8533;48.426;10.868;2023-12-20T11:55:07;2.33;;;1.97;;
16832;SDS011;8533;48.426;10.868;2023-12-20T11:57:33;2.43;;;1.90;;
16832;SDS011;8533;48.426;10.868;2023-12-20T11:59:58;2.37;;;1.90;;
16832;SDS011;8533;48.426;10.868;2023-12-20T12:02:24;1.90;;;1.70;;
16832;SDS011;8533;48.426;10.868;2023-12-20T12:04:50;1.93;;;1.73;;
16832;SDS011;8533;48.426;10.868;2023-12-20T12:07:18;3.17;;;1.70;;
16832;SDS011;8533;48.426;10.868;2023-12-20T12:09:43;5.73;;;2.00;;
16832;SDS011;8533;48.426;10.868;2023-12-20T12:12:09;3.97;;;1.80;;
16832;SDS011;8533;48.426;10.868;2023-12-20T12:14:35;3.87;;;1.67;;
16832;SDS011;8533;48.426;10.868;2023-12-20T12:17:02;2.40;;;1.60;;
16832;SDS011;8533;48.426;10.868;2023-12-20T12:19:27;1.90;;;1.63;;
16832;SDS011;8533;48.426;10.868;2023-12-20T12:22:10;5.90;;;2.00;;
16832;SDS011;8533;48.426;10.868;2023-12-20T12:24:41;1.53;;;1.43;;
16832;SDS011;8533;48.426;10.868;2023-12-20T12:27:08;3.47;;;1.70;;
16832;SDS011;8533;48.426;10.868;2023-12-20T12:29:34;4.93;;;1.60;;
16832;SDS011;8533;48.426;10.868;2023-12-20T12:32:00;4.43;;;1.43;;
16832;SDS011;8533;48.426;10.868;2023-12-20T12:34:29;3.73;;;1.73;;
16832;SDS011;8533;48.426;10.868;2023-12-20T12:36:54;3.33;;;1.73;;
16832;SDS011;8533;48.426;10.868;2023-12-20T12:39:21;4.00;;;1.80;;
16832;SDS011;8533;48.426;10.868;2023-12-20T12:41:49;2.03;;;1.83;;
16832;SDS011;8533;48.426;10.868;2023-12-20T12:44:15;2.27;;;1.60;;
16832;SDS011;8533;48.426;10.868;2023-12-20T12:46:40;1.63;;;1.50;;
16832;SDS011;8533;48.426;10.868;2023-12-20T12:49:05;3.50;;;1.60;;
16832;SDS011;8533;48.426;10.868;2023-12-20T12:51:30;2.03;;;1.30;;
16832;SDS011;8533;48.426;10.868;2023-12-20T12:53:56;4.50;;;1.40;;
16832;SDS011;8533;48.426;10.868;2023-12-20T12:56:22;4.10;;;1.70;;
16832;SDS011;8533;48.426;10.868;2023-12-20T12:58:47;3.13;;;1.60;;
16832;SDS011;8533;48.426;10.868;2023-12-20T13:01:12;3.97;;;1.50;;
16832;SDS011;8533;48.426;10.868;2023-12-20T13:03:38;3.70;;;1.77;;
16832;SDS011;8533;48.426;10.868;2023-12-20T13:06:04;3.73;;;1.67;;
16832;SDS011;8533;48.426;10.868;2023-12-20T13:08:30;4.00;;;1.50;;
16832;SDS011;8533;48.426;10.868;2023-12-20T13:10:56;2.77;;;1.50;;
16832;SDS011;8533;48.426;10.868;2023-12-20T13:13:25;4.33;;;1.67;;
16832;SDS011;8533;48.426;10.868;2023-12-20T13:15:50;4.73;;;1.83;;
16832;SDS011;8533;48.426;10.868;2023-12-20T13:18:19;6.33;;;1.53;;
16832;SDS011;8533;48.426;10.868;2023-12-20T13:20:45;3.40;;;1.80;;
16832;SDS011;8533;48.426;10.868;2023-12-20T13:23:10;6.97;;;3.40;;
16832;SDS011;8533;48.426;10.868;2023-12-20T13:25:36;8.27;;;3.80;;
16832;SDS011;8533;48.426;10.868;2023-12-20T13:28:01;7.47;;;3.30;;
16832;SDS011;8533;48.426;10.868;2023-12-20T13:30:28;8.90;;;3.00;;
16832;SDS011;8533;48.426;10.868;2023-12-20T13:32:53;7.60;;;3.40;;
16832;SDS011;8533;48.426;10.868;2023-12-20T13:35:18;4.13;;;2.43;;
16832;SDS011;8533;48.426;10.868;2023-12-20T13:37:44;12.33;;;6.03;;
16832;SDS011;8533;48.426;10.868;2023-12-20T13:40:09;7.57;;;2.37;;
16832;SDS011;8533;48.426;10.868;2023-12-20T13:42:35;12.67;;;3.37;;
16832;SDS011;8533;48.426;10.868;2023-12-20T13:45:00;8.50;;;3.63;;
16832;SDS011;8533;48.426;10.868;2023-12-20T13:47:26;7.17;;;2.67;;
16832;SDS011;8533;48.426;10.868;2023-12-20T13:49:51;3.33;;;1.80;;
16832;SDS011;8533;48.426;10.868;2023-12-20T13:52:17;5.80;;;1.70;;
16832;SDS011;8533;48.426;10.868;2023-12-20T13:54:42;5.43;;;2.10;;
16832;SDS011;8533;48.426;10.868;2023-12-20T13:57:07;12.37;;;3.17;;
16832;SDS011;8533;48.426;10.868;2023-12-20T13:59:33;7.90;;;3.13;;
16832;SDS011;8533;48.426;10.868;2023-12-20T14:02:00;7.97;;;2.80;;
16832;SDS011;8533;48.426;10.868;2023-12-20T14:04:26;5.87;;;2.63;;
16832;SDS011;8533;48.426;10.868;2023-12-20T14:06:51;9.80;;;3.03;;
16832;SDS011;8533;48.426;10.868;2023-12-20T14:09:16;9.47;;;3.47;;
16832;SDS011;8533;48.426;10.868;2023-12-20T14:11:42;7.73;;;2.90;;
16832;SDS011;8533;48.426;10.868;2023-12-20T14:14:07;8.33;;;3.47;;
16832;SDS011;8533;48.426;10.868;2023-12-20T14:16:33;10.63;;;4.13;;
16832;SDS011;8533;48.426;10.868;2023-12-20T14:18:59;14.67;;;4.30;;
16832;SDS011;8533;48.426;10.868;2023-12-20T14:21:24;13.43;;;2.40;;
16832;SDS011;8533;48.426;10.868;2023-12-20T14:23:50;5.33;;;2.67;;
16832;SDS011;8533;48.426;10.868;2023-12-20T14:26:16;3.53;;;2.07;;
16832;SDS011;8533;48.426;10.868;2023-12-20T14:28:42;8.00;;;2.63;;
16832;SDS011;8533;48.426;10.868;2023-12-20T14:31:07;3.33;;;2.27;;
16832;SDS011;8533;48.426;10.868;2023-12-20T14:33:33;6.83;;;2.37;;
16832;SDS011;8533;48.426;10.868;2023-12-20T14:35:58;4.17;;;2.40;;
16832;SDS011;8533;48.426;10.868;2023-12-20T14:38:24;2.30;;;1.83;;
16832;SDS011;8533;48.426;10.868;2023-12-20T14:40:49;3.73;;;1.80;;
16832;SDS011;8533;48.426;10.868;2023-12-20T14:43:15;2.30;;;1.57;;
16832;SDS011;8533;48.426;10.868;2023-12-20T14:45:41;2.93;;;1.90;;